Time;durP1;ratioP1;P1;durP2;ratioP2;P2;SDS_P1;SDS_P2;PMS_P1;PMS_P2;Temp;Humidity;BMP_temperature;BMP_pressure;BME280_temperature;BME280_humidity;BME280_pressure;Samples;Min_cycle;Max_cycle;Signal;HPM_P1;HPM_P2
2022/01/12 00:01:09;;;;;;;6.50;4.77;;;4.40;99.90;;;;;;5035107;28;20228;-79
2022/01/12 00:03:37;;;;;;;10.10;5.20;;;4.50;99.90;;;;;;5035971;28;20190;-79
2022/01/12 00:06:06;;;;;;;8.43;5.70;;;4.50;99.90;;;;;;5036141;28;20202;-79
2022/01/12 00:08:33;;;;;;;6.73;4.80;;;4.40;99.90;;;;;;5034545;28;20225;-79
2022/01/12 00:11:01;;;;;;;6.60;4.83;;;4.40;99.90;;;;;;5035046;28;20696;-79
2022/01/12 00:13:29;;;;;;;6.07;4.67;;;4.40;99.90;;;;;;5035857;28;20549;-79
2022/01/12 00:16:01;;;;;;;7.13;4.70;;;4.40;99.90;;;;;;5034963;28;20205;-79
2022/01/12 00:18:34;;;;;;;7.37;4.80;;;4.40;99.90;;;;;;5034622;28;20198;-79
2022/01/12 00:21:02;;;;;;;8.10;4.60;;;4.40;99.90;;;;;;5035531;28;20222;-79
2022/01/12 00:23:30;;;;;;;5.27;4.27;;;4.50;99.90;;;;;;5040452;28;20197;-79
2022/01/12 00:26:05;;;;;;;6.97;4.13;;;4.50;99.90;;;;;;5034428;28;20203;-79
2022/01/12 00:34:12;;;;;;;6.13;4.23;;;4.50;99.90;;;;;;5022086;28;20205;-79
2022/01/12 00:36:57;;;;;;;6.67;3.87;;;4.50;99.90;;;;;;5031136;28;20630;-79
2022/01/12 00:39:24;;;;;;;7.50;4.17;;;4.40;99.90;;;;;;5025221;28;20211;-79
2022/01/12 00:41:53;;;;;;;5.97;4.13;;;4.50;99.90;;;;;;5029174;28;20734;-80
2022/01/12 00:44:23;;;;;;;6.47;3.70;;;4.50;99.90;;;;;;5033624;28;20191;-79
2022/01/12 00:46:53;;;;;;;6.93;4.20;;;4.50;99.90;;;;;;5033144;28;20209;-79
2022/01/12 00:49:24;;;;;;;6.77;4.40;;;4.50;99.90;;;;;;5029317;28;20214;-79
2022/01/12 00:51:54;;;;;;;9.83;4.87;;;4.40;99.90;;;;;;5029106;28;20279;-79
2022/01/12 00:54:22;;;;;;;5.77;3.70;;;4.50;99.90;;;;;;5026788;28;20199;-79
2022/01/12 00:56:49;;;;;;;5.13;3.63;;;4.50;99.90;;;;;;5029207;28;20205;-79
2022/01/12 00:59:16;;;;;;;5.80;3.80;;;4.40;99.90;;;;;;5034093;28;20557;-79
2022/01/12 01:01:45;;;;;;;6.23;4.00;;;4.40;99.90;;;;;;5034460;28;20226;-79
2022/01/12 01:04:16;;;;;;;6.57;4.43;;;4.30;99.90;;;;;;5030830;28;20199;-79
2022/01/12 01:06:43;;;;;;;6.20;4.00;;;4.30;99.90;;;;;;5030693;28;20195;-79
2022/01/12 01:09:11;;;;;;;4.50;3.60;;;4.40;99.90;;;;;;5031833;28;20210;-79
2022/01/12 01:11:39;;;;;;;5.83;3.90;;;4.40;99.90;;;;;;5032738;28;20210;-79
2022/01/12 01:14:15;;;;;;;7.40;4.13;;;4.40;99.90;;;;;;5033175;28;20199;-79
2022/01/12 01:16:52;;;;;;;5.60;4.27;;;4.40;99.90;;;;;;5031116;28;20200;-79
2022/01/12 01:27:38;;;;;;;5.90;3.93;;;4.50;99.90;;;;;;5043048;28;20186;-79
2022/01/12 01:30:06;;;;;;;6.33;3.73;;;4.50;99.90;;;;;;5033068;28;20581;-79
2022/01/12 01:32:35;;;;;;;6.33;4.17;;;4.40;99.90;;;;;;5017976;28;20589;-79
2022/01/12 01:35:05;;;;;;;5.97;4.20;;;4.30;99.90;;;;;;5030811;28;20202;-79
2022/01/12 01:37:32;;;;;;;7.03;4.23;;;4.30;99.90;;;;;;5040503;28;20206;-79
2022/01/12 01:40:08;;;;;;;6.90;4.77;;;4.30;99.90;;;;;;5031619;28;20215;-79
2022/01/12 01:42:53;;;;;;;5.97;4.57;;;4.30;99.90;;;;;;5031916;28;20236;-80
2022/01/12 01:53:39;;;;;;;5.50;4.00;;;4.40;99.90;;;;;;5028806;28;20207;-79
2022/01/12 01:56:07;;;;;;;4.33;3.70;;;4.40;99.90;;;;;;5027992;28;20220;-79
2022/01/12 01:58:38;;;;;;;4.80;3.57;;;4.40;99.90;;;;;;5022933;28;20680;-79
2022/01/12 02:01:06;;;;;;;6.00;3.97;;;4.40;99.90;;;;;;5027207;28;20232;-79
2022/01/12 02:03:51;;;;;;;5.47;3.50;;;4.30;99.90;;;;;;5029835;28;20205;-79
2022/01/12 02:06:19;;;;;;;4.90;3.50;;;4.40;99.90;;;;;;5024308;28;20199;-79
2022/01/12 02:08:47;;;;;;;6.80;3.60;;;4.40;99.90;;;;;;5031319;28;20209;-79
2022/01/12 02:11:29;;;;;;;4.67;3.47;;;4.40;99.90;;;;;;5030056;28;20222;-79
2022/01/12 02:14:02;;;;;;;5.17;3.70;;;4.50;99.90;;;;;;5031748;28;20536;-80
2022/01/12 02:16:49;;;;;;;5.53;3.23;;;4.50;99.90;;;;;;5033973;28;20544;-80
2022/01/12 02:19:31;;;;;;;5.30;3.47;;;4.50;99.90;;;;;;5024916;28;20213;-79
2022/01/12 02:35:53;;;;;;;6.33;3.40;;;4.40;99.90;;;;;;5031701;28;20210;-79
2022/01/12 02:41:04;;;;;;;5.33;3.30;;;4.30;99.90;;;;;;4989944;28;20229;-80
2022/01/12 02:50:35;;;;;;;4.33;3.03;;;4.30;99.90;;;;;;5031929;28;20228;-80
2022/01/12 02:54:58;;;;;;;4.57;3.63;;;4.40;99.90;;;;;;5011662;28;20198;-80
2022/01/12 02:57:26;;;;;;;6.23;4.33;;;4.50;99.90;;;;;;5031764;28;20198;-80
2022/01/12 03:02:41;;;;;;;5.93;3.93;;;4.50;99.90;;;;;;5029315;28;20195;-80
2022/01/12 03:05:32;;;;;;;6.10;3.90;;;4.50;99.90;;;;;;5031703;28;20201;-79
2022/01/12 03:08:09;;;;;;;6.33;4.27;;;4.50;99.90;;;;;;5031591;28;20216;-80
2022/01/12 03:10:38;;;;;;;6.70;3.93;;;4.40;99.90;;;;;;5030799;28;20232;-80
2022/01/12 03:13:05;;;;;;;4.80;3.17;;;4.40;99.90;;;;;;5031700;28;20199;-80
2022/01/12 03:15:39;;;;;;;4.50;3.70;;;4.40;99.90;;;;;;5025413;28;20206;-80
2022/01/12 03:18:07;;;;;;;6.27;4.40;;;4.50;99.90;;;;;;5022019;28;20202;-80
2022/01/12 03:20:38;;;;;;;4.90;3.53;;;4.40;99.90;;;;;;5047935;28;20677;-80
2022/01/12 03:23:05;;;;;;;5.80;3.70;;;4.50;99.90;;;;;;5024784;28;20649;-80
2022/01/12 03:25:33;;;;;;;6.53;4.07;;;4.40;99.90;;;;;;5032297;28;20197;-80
2022/01/12 03:28:04;;;;;;;5.23;3.67;;;4.40;99.90;;;;;;5028552;28;20673;-80
2022/01/12 03:30:37;;;;;;;5.73;4.17;;;4.40;99.90;;;;;;5049333;28;20224;-80
2022/01/12 03:33:11;;;;;;;5.10;4.10;;;4.40;99.90;;;;;;5032339;28;20579;-80
2022/01/12 03:35:50;;;;;;;5.80;4.40;;;4.40;99.90;;;;;;5032644;28;20204;-80
2022/01/12 03:38:21;;;;;;;5.97;3.93;;;4.50;99.90;;;;;;5030219;28;20557;-80
2022/01/12 03:40:50;;;;;;;6.90;4.10;;;4.60;99.90;;;;;;5043763;28;20221;-80
2022/01/12 03:43:20;;;;;;;6.03;4.40;;;4.60;99.90;;;;;;5020052;28;20199;-80
2022/01/12 03:45:49;;;;;;;7.33;4.20;;;4.60;99.90;;;;;;5030839;28;20203;-80
2022/01/12 03:48:17;;;;;;;5.07;3.90;;;4.60;99.90;;;;;;5030649;28;20202;-80
2022/01/12 03:50:46;;;;;;;5.73;3.90;;;4.60;99.90;;;;;;5029808;28;20233;-80
2022/01/12 03:53:13;;;;;;;6.00;4.30;;;4.50;99.90;;;;;;5030261;28;20211;-80
2022/01/12 03:55:41;;;;;;;6.67;4.30;;;4.50;99.90;;;;;;5031390;28;20213;-79
2022/01/12 03:58:10;;;;;;;5.07;4.23;;;4.40;99.90;;;;;;5034101;28;20195;-79
2022/01/12 04:00:39;;;;;;;4.40;3.77;;;4.40;99.90;;;;;;5031007;28;20214;-80
2022/01/12 04:03:08;;;;;;;6.90;4.93;;;4.50;99.90;;;;;;5031521;28;20208;-79
2022/01/12 04:08:18;;;;;;;5.50;4.20;;;4.40;99.90;;;;;;5031471;28;20257;-80
2022/01/12 04:08:28;;;;;;;5.40;4.20;;;4.40;99.90;;;;;;5031723;28;20206;-80
2022/01/12 04:10:57;;;;;;;5.10;4.60;;;4.50;99.90;;;;;;5031035;28;20226;-80
2022/01/12 04:13:38;;;;;;;8.20;4.50;;;4.50;99.90;;;;;;5031216;28;20202;-79
2022/01/12 04:16:07;;;;;;;6.90;5.13;;;4.50;99.90;;;;;;5034352;28;20190;-79
2022/01/12 04:18:38;;;;;;;5.67;4.50;;;4.60;99.90;;;;;;5028393;28;20195;-80
2022/01/12 04:21:08;;;;;;;7.53;5.03;;;4.50;99.90;;;;;;5051338;28;20244;-80
2022/01/12 04:23:36;;;;;;;6.27;4.87;;;4.60;99.90;;;;;;5035012;28;20194;-80
2022/01/12 04:26:09;;;;;;;5.47;4.90;;;4.60;99.90;;;;;;5036292;28;20195;-80
2022/01/12 04:28:39;;;;;;;7.87;4.80;;;4.50;99.90;;;;;;5035744;28;20214;-80
2022/01/12 04:31:09;;;;;;;5.47;4.27;;;4.50;99.90;;;;;;5033364;28;20230;-80
2022/01/12 04:33:37;;;;;;;7.67;5.03;;;4.50;99.90;;;;;;5051311;28;20191;-80
2022/01/12 04:36:06;;;;;;;7.27;5.00;;;4.50;99.90;;;;;;5015835;28;20195;-80
2022/01/12 04:38:35;;;;;;;8.60;4.80;;;4.60;99.90;;;;;;5027165;28;20196;-80
2022/01/12 04:41:05;;;;;;;7.20;5.20;;;4.70;99.90;;;;;;5034179;28;20218;-80
2022/01/12 04:43:34;;;;;;;6.87;5.23;;;4.80;99.90;;;;;;5035992;28;20202;-80
2022/01/12 04:46:23;;;;;;;8.10;4.83;;;4.60;99.90;;;;;;5032829;28;20548;-80
2022/01/12 04:49:25;;;;;;;8.90;4.93;;;4.70;99.90;;;;;;5033478;28;20202;-80
2022/01/12 04:51:53;;;;;;;10.20;5.03;;;4.70;99.90;;;;;;5034191;28;20225;-80
2022/01/12 04:54:20;;;;;;;9.07;5.60;;;4.60;99.90;;;;;;5034507;28;20196;-80
2022/01/12 04:56:48;;;;;;;8.00;5.23;;;4.60;99.90;;;;;;5047961;28;20194;-80
2022/01/12 04:59:16;;;;;;;6.83;5.43;;;4.70;99.90;;;;;;5054897;28;20216;-80
2022/01/12 05:01:52;;;;;;;6.27;5.33;;;4.60;99.90;;;;;;5050109;28;20565;-80
2022/01/12 05:07:24;;;;;;;8.03;5.50;;;4.60;99.90;;;;;;5050350;28;20209;-80
2022/01/12 05:12:47;;;;;;;7.67;5.63;;;4.60;99.90;;;;;;5054990;28;20207;-80
2022/01/12 05:12:54;;;;;;;9.13;6.13;;;4.60;99.90;;;;;;5032223;28;20198;-80
2022/01/12 05:15:29;;;;;;;10.20;5.63;;;4.50;99.90;;;;;;5039549;28;20195;-79
2022/01/12 05:17:57;;;;;;;9.70;6.60;;;4.50;99.90;;;;;;5032427;28;20205;-79
2022/01/12 05:20:27;;;;;;;11.73;6.53;;;4.50;99.90;;;;;;5040641;28;20220;-80
2022/01/12 05:22:55;;;;;;;11.70;6.47;;;4.50;99.90;;;;;;5049888;28;20266;-80
2022/01/12 05:25:23;;;;;;;12.93;6.40;;;4.50;99.90;;;;;;5035208;28;20202;-80
2022/01/12 05:27:52;;;;;;;12.40;7.10;;;4.50;99.90;;;;;;5030710;28;20560;-79
2022/01/12 05:30:20;;;;;;;10.70;7.33;;;4.50;99.90;;;;;;5044883;28;20221;-80
2022/01/12 05:32:47;;;;;;;10.37;6.67;;;4.50;99.90;;;;;;5032520;28;20191;-80
2022/01/12 05:35:18;;;;;;;12.03;7.63;;;4.50;99.90;;;;;;5032949;28;20198;-80
2022/01/12 05:37:47;;;;;;;11.87;6.90;;;4.60;99.90;;;;;;5033022;28;20209;-80
2022/01/12 05:40:17;;;;;;;12.57;7.80;;;4.60;99.90;;;;;;5024305;28;20230;-80
2022/01/12 05:42:45;;;;;;;12.20;7.63;;;4.60;99.90;;;;;;5045690;28;20562;-80
2022/01/12 05:45:15;;;;;;;10.27;7.23;;;4.60;99.90;;;;;;5029870;28;20206;-80
2022/01/12 05:50:32;;;;;;;10.60;7.37;;;4.60;99.90;;;;;;5014070;28;20228;-80
2022/01/12 05:53:06;;;;;;;8.53;6.57;;;4.50;99.90;;;;;;5014191;28;20654;-80
2022/01/12 05:55:34;;;;;;;12.07;7.03;;;4.50;99.90;;;;;;5023683;28;20191;-80
2022/01/12 05:58:02;;;;;;;11.27;7.73;;;4.60;99.90;;;;;;5034134;28;20201;-80
2022/01/12 06:00:31;;;;;;;10.20;7.10;;;4.60;99.90;;;;;;5033090;28;20234;-79
2022/01/12 06:03:01;;;;;;;10.80;6.93;;;4.50;99.90;;;;;;5033280;28;20198;-81
2022/01/12 06:05:29;;;;;;;11.57;7.40;;;4.50;99.90;;;;;;5033101;28;20210;-80
2022/01/12 06:07:58;;;;;;;9.43;6.47;;;4.50;99.90;;;;;;5035748;28;20195;-80
2022/01/12 06:10:28;;;;;;;11.67;7.10;;;4.70;99.90;;;;;;5032903;28;20207;-80
2022/01/12 06:12:57;;;;;;;11.50;7.17;;;4.60;99.90;;;;;;5022486;28;20191;-80
2022/01/12 06:15:27;;;;;;;11.87;6.97;;;4.80;99.90;;;;;;5033082;28;20195;-80
2022/01/12 06:17:54;;;;;;;9.20;6.53;;;4.70;99.90;;;;;;5033302;28;20194;-80
2022/01/12 06:20:22;;;;;;;11.50;6.70;;;4.70;99.90;;;;;;5032018;28;20247;-80
2022/01/12 06:23:03;;;;;;;11.07;7.63;;;4.70;99.90;;;;;;5033651;28;20678;-80
2022/01/12 06:25:34;;;;;;;10.60;7.00;;;4.60;99.90;;;;;;5033222;28;20205;-80
2022/01/12 06:28:21;;;;;;;10.67;7.63;;;4.70;99.90;;;;;;5032896;28;20198;-80
2022/01/12 06:33:37;;;;;;;9.63;7.77;;;4.60;99.90;;;;;;5047481;28;20198;-80
2022/01/12 06:36:05;;;;;;;13.37;8.10;;;4.70;99.90;;;;;;5013670;28;20218;-80
2022/01/12 06:38:42;;;;;;;10.63;7.70;;;4.50;99.90;;;;;;5024606;28;20205;-80
2022/01/12 06:41:19;;;;;;;9.87;7.03;;;4.50;99.90;;;;;;5032124;28;20223;-80
2022/01/12 06:44:27;;;;;;;11.00;7.60;;;4.50;99.90;;;;;;5046031;28;20205;-80
2022/01/12 06:46:57;;;;;;;14.53;8.00;;;4.50;99.90;;;;;;4969355;28;20206;-80
2022/01/12 06:49:51;;;;;;;11.70;8.07;;;4.60;99.90;;;;;;5024219;28;20195;-79
2022/01/12 06:52:19;;;;;;;11.77;8.00;;;4.50;99.90;;;;;;5031885;28;20223;-80
2022/01/12 06:54:49;;;;;;;10.00;7.83;;;4.60;99.90;;;;;;5031435;28;20206;-79
2022/01/12 06:57:18;;;;;;;12.17;8.07;;;4.70;99.90;;;;;;5040944;28;20205;-79
2022/01/12 06:59:46;;;;;;;13.53;8.30;;;4.70;99.90;;;;;;5032137;28;20221;-80
2022/01/12 07:02:18;;;;;;;13.10;8.77;;;4.70;99.90;;;;;;5029497;28;20549;-80
2022/01/12 07:04:47;;;;;;;12.67;8.13;;;4.60;99.90;;;;;;5041609;28;20199;-80
2022/01/12 07:07:15;;;;;;;11.00;8.37;;;4.50;99.90;;;;;;5026548;28;20205;-79
2022/01/12 07:09:46;;;;;;;13.10;8.23;;;4.40;99.90;;;;;;5044122;28;20665;-80
2022/01/12 07:12:20;;;;;;;10.70;8.73;;;4.40;99.90;;;;;;5030786;28;20229;-79
2022/01/12 07:14:48;;;;;;;13.10;8.60;;;4.50;99.90;;;;;;5030701;28;20209;-80
2022/01/12 07:17:16;;;;;;;14.20;9.80;;;4.60;99.90;;;;;;5046668;28;20198;-80
2022/01/12 07:19:44;;;;;;;16.77;9.97;;;4.70;99.90;;;;;;5030908;28;20197;-80
2022/01/12 07:22:11;;;;;;;14.17;9.37;;;4.50;99.90;;;;;;5030293;28;20191;-79
2022/01/12 07:24:39;;;;;;;14.37;9.03;;;4.50;99.90;;;;;;5034412;28;20210;-80
2022/01/12 07:27:07;;;;;;;14.23;8.80;;;4.50;99.90;;;;;;5030846;28;20559;-80
2022/01/12 07:29:44;;;;;;;12.33;9.03;;;4.50;99.90;;;;;;5025225;28;20202;-80
2022/01/12 07:32:24;;;;;;;13.23;9.50;;;4.70;99.90;;;;;;5014521;28;20221;-76
2022/01/12 07:34:51;;;;;;;12.27;8.50;;;5.00;99.90;;;;;;5010436;28;20212;-76
2022/01/12 07:37:27;;;;;;;10.13;7.83;;;5.00;99.90;;;;;;5009991;28;20212;-76
2022/01/12 07:39:54;;;;;;;11.57;8.23;;;5.00;99.90;;;;;;5024214;28;20199;-77
2022/01/12 07:42:21;;;;;;;10.67;7.40;;;4.90;99.90;;;;;;5031325;28;20231;-76
2022/01/12 07:44:58;;;;;;;11.43;7.90;;;5.00;99.90;;;;;;5029811;28;20203;-76
2022/01/12 07:47:42;;;;;;;11.80;8.50;;;4.90;99.90;;;;;;5022504;28;20202;-76
2022/01/12 07:50:10;;;;;;;11.30;8.87;;;5.00;99.90;;;;;;5024470;28;20219;-76
2022/01/12 07:53:25;;;;;;;12.70;9.50;;;4.90;99.90;;;;;;5027250;28;20221;-76
2022/01/12 07:55:52;;;;;;;16.33;10.13;;;4.90;99.90;;;;;;5031740;28;20198;-76
2022/01/12 07:58:19;;;;;;;13.80;9.97;;;4.90;99.90;;;;;;5032312;28;20203;-76
2022/01/12 08:00:50;;;;;;;14.57;11.37;;;5.00;99.90;;;;;;5028343;28;20219;-76
2022/01/12 08:07:06;;;;;;;16.13;10.77;;;4.60;99.90;;;;;;5033815;28;20174;-77
2022/01/12 08:09:35;;;;;;;13.83;10.77;;;4.30;99.90;;;;;;5028909;28;20216;-76
2022/01/12 08:12:03;;;;;;;15.57;10.83;;;4.20;99.90;;;;;;5037607;28;20218;-75
2022/01/12 08:14:31;;;;;;;14.87;11.43;;;4.10;99.90;;;;;;5028311;28;20202;-75
2022/01/12 08:16:59;;;;;;;16.03;10.70;;;4.20;99.90;;;;;;5027962;28;20208;-75
2022/01/12 08:19:34;;;;;;;17.07;11.43;;;4.40;99.90;;;;;;5027663;28;20202;-75
2022/01/12 08:22:01;;;;;;;18.90;11.90;;;4.50;99.90;;;;;;5031675;28;20210;-76
2022/01/12 08:24:29;;;;;;;17.37;11.10;;;4.30;99.90;;;;;;5032181;28;20210;-75
2022/01/12 08:26:56;;;;;;;16.70;11.37;;;4.50;99.90;;;;;;5031991;28;20206;-76
2022/01/12 08:29:42;;;;;;;15.10;12.20;;;4.60;99.90;;;;;;5033192;28;20188;-76
2022/01/12 08:32:11;;;;;;;18.20;12.17;;;4.70;99.90;;;;;;5031993;28;20233;-76
2022/01/12 08:34:38;;;;;;;16.73;11.67;;;4.70;99.90;;;;;;5031944;28;20209;-76
2022/01/12 08:37:06;;;;;;;23.00;12.50;;;4.60;99.90;;;;;;5029868;28;20199;-75
2022/01/12 08:39:33;;;;;;;18.13;13.10;;;4.40;99.90;;;;;;5026953;28;20193;-75
2022/01/12 08:42:00;;;;;;;17.67;11.70;;;4.20;99.90;;;;;;5022598;28;20264;-75
2022/01/12 08:44:28;;;;;;;15.77;10.83;;;4.30;99.90;;;;;;5029732;28;20206;-75
2022/01/12 08:46:55;;;;;;;20.67;12.20;;;4.30;99.90;;;;;;5031885;28;20209;-76
2022/01/12 08:49:24;;;;;;;18.13;12.17;;;4.30;99.90;;;;;;5031306;28;20202;-75
2022/01/12 08:51:52;;;;;;;22.73;13.20;;;4.40;99.90;;;;;;5021187;28;20223;-76
2022/01/12 08:54:20;;;;;;;18.90;11.83;;;4.40;99.90;;;;;;5031252;28;20215;-75
2022/01/12 09:00:16;;;;;;;19.13;11.47;;;4.20;99.90;;;;;;5031407;28;20215;-76
2022/01/12 09:02:43;;;;;;;17.43;12.40;;;4.50;99.90;;;;;;5032131;28;20189;-76
2022/01/12 09:05:14;;;;;;;20.40;12.83;;;4.40;99.90;;;;;;5042729;28;20275;-76
2022/01/12 09:07:43;;;;;;;19.07;12.33;;;4.60;99.90;;;;;;5030851;28;20202;-75
2022/01/12 09:10:25;;;;;;;22.13;13.37;;;4.50;99.90;;;;;;5030477;28;20223;-76
2022/01/12 09:12:53;;;;;;;18.60;13.73;;;4.60;99.90;;;;;;5032779;28;20219;-76
2022/01/12 09:15:25;;;;;;;22.80;12.93;;;4.60;99.90;;;;;;5033799;28;20647;-76
2022/01/12 09:17:54;;;;;;;22.40;13.33;;;4.50;99.90;;;;;;5032525;28;20214;-76
2022/01/12 09:20:23;;;;;;;25.37;13.63;;;4.60;99.90;;;;;;5040680;28;20225;-76
2022/01/12 09:22:51;;;;;;;24.93;14.37;;;4.70;99.90;;;;;;5031998;28;20719;-76
2022/01/12 09:25:19;;;;;;;22.97;15.13;;;4.80;99.90;;;;;;5027556;28;20196;-75
2022/01/12 09:27:46;;;;;;;24.30;14.90;;;4.80;99.90;;;;;;5032519;28;20561;-77
2022/01/12 09:30:16;;;;;;;25.27;14.13;;;4.90;99.90;;;;;;5034194;28;20220;-77
2022/01/12 09:32:43;;;;;;;25.33;14.83;;;4.90;99.90;;;;;;5037007;28;20210;-75
2022/01/12 09:35:12;;;;;;;21.80;14.37;;;4.90;99.90;;;;;;5031723;28;20206;-75
2022/01/12 09:37:41;;;;;;;22.07;14.47;;;4.60;99.90;;;;;;5023086;28;20195;-74
2022/01/12 09:40:10;;;;;;;26.03;15.80;;;4.60;99.90;;;;;;5028515;28;20222;-74
2022/01/12 09:42:37;;;;;;;25.07;14.83;;;4.40;99.90;;;;;;5034333;28;20209;-74
2022/01/12 09:45:07;;;;;;;27.57;16.23;;;4.60;99.90;;;;;;5024645;28;20204;-74
2022/01/12 09:47:35;;;;;;;26.47;16.03;;;4.30;99.90;;;;;;5044067;28;20558;-74
2022/01/12 09:50:17;;;;;;;25.93;14.93;;;4.20;99.90;;;;;;5035950;28;20223;-74
2022/01/12 09:52:46;;;;;;;33.07;17.93;;;4.40;99.90;;;;;;5035278;28;20210;-75
2022/01/12 09:55:13;;;;;;;30.43;16.73;;;4.60;99.90;;;;;;5021402;28;20220;-75
2022/01/12 09:57:40;;;;;;;28.43;17.27;;;4.70;99.90;;;;;;5030204;28;20213;-75
2022/01/12 10:00:09;;;;;;;31.03;16.83;;;4.70;99.90;;;;;;5028253;28;20293;-74
2022/01/12 10:02:42;;;;;;;32.80;17.70;;;4.90;99.90;;;;;;5029996;28;20211;-74
2022/01/12 10:05:14;;;;;;;33.77;19.47;;;4.60;99.90;;;;;;5027809;28;20202;-74
2022/01/12 10:07:41;;;;;;;37.40;20.13;;;4.30;99.90;;;;;;5031529;28;20171;-74
2022/01/12 10:10:14;;;;;;;40.30;21.30;;;4.20;99.90;;;;;;5030211;28;20684;-74
2022/01/12 10:13:00;;;;;;;31.43;17.83;;;4.20;99.90;;;;;;5030185;28;20592;-74
2022/01/12 10:15:29;;;;;;;35.57;17.90;;;4.20;99.90;;;;;;5032377;28;20207;-74
2022/01/12 10:18:02;;;;;;;36.00;19.83;;;4.40;99.90;;;;;;5033607;28;20217;-74
2022/01/12 10:20:30;;;;;;;34.83;20.20;;;4.40;99.90;;;;;;5028010;28;20302;-74
2022/01/12 10:23:00;;;;;;;33.73;19.10;;;4.30;99.90;;;;;;5034351;28;20203;-74
2022/01/12 10:25:30;;;;;;;37.27;20.83;;;4.20;99.90;;;;;;5029505;28;20210;-74
2022/01/12 10:27:59;;;;;;;33.47;18.83;;;4.40;99.90;;;;;;5028416;28;20682;-74
2022/01/12 10:30:28;;;;;;;34.93;18.63;;;4.60;99.90;;;;;;5027063;28;20210;-74
2022/01/12 10:33:03;;;;;;;35.37;18.80;;;4.70;99.90;;;;;;5030484;28;20250;-74
2022/01/12 10:35:33;;;;;;;36.83;19.20;;;4.80;99.90;;;;;;5026545;28;20206;-74
2022/01/12 10:38:08;;;;;;;38.20;20.10;;;4.90;99.90;;;;;;5030530;28;20210;-74
2022/01/12 10:40:49;;;;;;;35.77;19.97;;;4.80;99.90;;;;;;5030589;28;20223;-74
2022/01/12 10:43:35;;;;;;;31.17;19.07;;;4.70;99.90;;;;;;5030596;28;20199;-74
2022/01/12 10:46:26;;;;;;;32.37;18.53;;;4.80;99.90;;;;;;5031070;28;20209;-74
2022/01/12 10:48:55;;;;;;;31.93;18.60;;;4.70;99.90;;;;;;4962946;28;20214;-74
2022/01/12 10:51:25;;;;;;;32.90;19.03;;;4.80;99.90;;;;;;5028057;28;20223;-74
2022/01/12 10:53:54;;;;;;;33.47;18.47;;;4.80;99.90;;;;;;5022631;28;20211;-75
2022/01/12 10:56:30;;;;;;;31.93;18.33;;;4.80;99.90;;;;;;5027464;28;20643;-74
2022/01/12 10:59:00;;;;;;;33.83;18.47;;;4.70;99.90;;;;;;5015817;28;20215;-74
2022/01/12 11:01:31;;;;;;;31.17;18.17;;;4.70;99.90;;;;;;5027802;28;20226;-74
2022/01/12 11:03:59;;;;;;;32.47;19.47;;;4.70;99.90;;;;;;5025432;28;20662;-74
2022/01/12 11:06:27;;;;;;;34.13;18.67;;;4.90;99.90;;;;;;5029370;28;20205;-74
2022/01/12 11:08:57;;;;;;;35.70;19.50;;;4.80;99.90;;;;;;5030665;28;20582;-74
2022/01/12 11:11:26;;;;;;;39.73;19.33;;;4.60;99.90;;;;;;5027363;28;20214;-74
2022/01/12 11:13:54;;;;;;;42.53;19.77;;;4.80;99.90;;;;;;5037380;28;20242;-74
2022/01/12 11:16:22;;;;;;;32.87;18.30;;;4.90;99.90;;;;;;5025487;28;20685;-74
2022/01/12 11:18:54;;;;;;;39.03;20.97;;;4.70;99.90;;;;;;5025598;28;20195;-74
2022/01/12 11:21:25;;;;;;;34.47;19.87;;;4.70;99.90;;;;;;5021829;28;20219;-74
2022/01/12 11:23:59;;;;;;;40.83;20.07;;;4.50;99.90;;;;;;5027278;28;20195;-74
2022/01/12 11:26:30;;;;;;;36.63;21.07;;;4.80;99.90;;;;;;5027626;28;20645;-74
2022/01/12 11:28:58;;;;;;;31.23;19.10;;;5.00;99.90;;;;;;5044577;28;20203;-74
2022/01/12 11:31:28;;;;;;;34.63;19.20;;;5.10;99.90;;;;;;5029776;28;20739;-74
2022/01/12 11:33:55;;;;;;;34.03;19.17;;;5.20;99.90;;;;;;5031512;28;20227;-74
2022/01/12 11:36:25;;;;;;;34.20;20.20;;;5.30;99.90;;;;;;5030515;28;20207;-74
2022/01/12 11:39:00;;;;;;;39.37;21.03;;;5.20;99.90;;;;;;5032167;28;20198;-74
2022/01/12 11:41:33;;;;;;;35.40;19.63;;;5.20;99.90;;;;;;5025524;28;20228;-74
2022/01/12 11:44:16;;;;;;;35.43;19.57;;;5.20;99.90;;;;;;5027965;28;20511;-76
2022/01/12 11:46:46;;;;;;;44.47;25.20;;;5.60;99.90;;;;;;5042439;28;20204;-74
2022/01/12 11:49:26;;;;;;;42.30;23.27;;;5.00;99.90;;;;;;5032678;28;20208;-75
2022/01/12 11:51:53;;;;;;;44.83;23.97;;;5.00;99.90;;;;;;5031419;28;20687;-75
2022/01/12 11:54:33;;;;;;;46.17;24.13;;;5.20;99.90;;;;;;5033865;28;20265;-75
2022/01/12 11:57:04;;;;;;;55.90;27.47;;;5.10;99.90;;;;;;5034606;28;20199;-75
2022/01/12 11:59:50;;;;;;;44.57;25.30;;;5.00;99.90;;;;;;5035261;28;20192;-75
2022/01/12 12:02:19;;;;;;;47.83;27.43;;;5.00;99.90;;;;;;5033735;28;20207;-75
2022/01/12 12:04:54;;;;;;;49.40;26.53;;;5.00;99.90;;;;;;5034732;28;20188;-75
2022/01/12 12:07:22;;;;;;;46.70;26.93;;;5.00;99.90;;;;;;5014240;28;20204;-75
2022/01/12 12:09:53;;;;;;;43.83;24.90;;;5.10;99.90;;;;;;5021977;28;20219;-75
2022/01/12 12:12:23;;;;;;;51.80;26.57;;;5.30;99.90;;;;;;5033411;28;20199;-75
2022/01/12 12:14:53;;;;;;;53.67;27.03;;;5.30;99.90;;;;;;5033795;28;20225;-75
2022/01/12 12:17:23;;;;;;;54.97;28.53;;;5.40;99.90;;;;;;5033218;28;20210;-75
2022/01/12 12:19:53;;;;;;;45.80;26.83;;;5.50;99.90;;;;;;5033786;28;20217;-75
2022/01/12 12:22:22;;;;;;;56.47;28.10;;;5.50;99.90;;;;;;5035359;28;20186;-75
2022/01/12 12:24:56;;;;;;;55.93;28.90;;;5.40;99.90;;;;;;5034529;28;20202;-75
2022/01/12 12:27:26;;;;;;;48.73;28.20;;;5.50;99.90;;;;;;5033566;28;20214;-74
2022/01/12 12:29:54;;;;;;;51.60;29.13;;;5.50;99.90;;;;;;5032638;28;20319;-74
2022/01/12 12:32:33;;;;;;;59.57;30.83;;;5.40;99.90;;;;;;5036349;28;20201;-74
2022/01/12 12:37:36;;;;;;;59.40;33.27;;;5.40;99.90;;;;;;5013730;28;20213;-75
2022/01/12 12:40:14;;;;;;;57.70;33.53;;;5.40;99.90;;;;;;5013044;28;20200;-76
2022/01/12 12:42:43;;;;;;;58.27;32.67;;;5.40;99.90;;;;;;5013437;28;20201;-76
2022/01/12 12:45:11;;;;;;;58.47;31.57;;;5.50;99.90;;;;;;5013814;28;20218;-76
2022/01/12 12:47:38;;;;;;;60.17;33.10;;;5.50;99.90;;;;;;5014937;28;20198;-76
2022/01/12 12:50:09;;;;;;;51.37;30.87;;;5.50;99.90;;;;;;5030194;28;20201;-76
2022/01/12 12:52:38;;;;;;;56.27;30.90;;;5.50;99.90;;;;;;5013341;28;20204;-76
2022/01/12 12:55:07;;;;;;;61.07;31.53;;;5.40;99.90;;;;;;5013495;28;20226;-76
2022/01/12 12:57:35;;;;;;;54.00;31.33;;;5.40;99.90;;;;;;5014078;28;20210;-76
2022/01/12 13:00:11;;;;;;;59.07;31.13;;;5.50;99.90;;;;;;5014777;28;20190;-76
2022/01/12 13:02:41;;;;;;;58.27;31.30;;;5.30;99.90;;;;;;5014789;28;20189;-76
2022/01/12 13:05:12;;;;;;;66.33;32.57;;;5.00;99.90;;;;;;5013656;28;20213;-75
2022/01/12 13:07:41;;;;;;;52.47;31.33;;;4.90;99.90;;;;;;5013657;28;20201;-76
2022/01/12 13:10:13;;;;;;;52.27;30.90;;;4.90;99.90;;;;;;5013496;28;20539;-76
2022/01/12 13:12:42;;;;;;;56.43;29.73;;;4.90;99.90;;;;;;5013480;28;20213;-75
2022/01/12 13:15:17;;;;;;;60.80;32.17;;;4.90;99.90;;;;;;5013461;28;20701;-75
2022/01/12 13:17:44;;;;;;;61.87;31.30;;;4.70;99.90;;;;;;5009754;28;20212;-75
2022/01/12 13:23:06;;;;;;;56.33;29.27;;;4.90;99.90;;;;;;5012728;28;20219;-76
2022/01/12 13:25:33;;;;;;;59.50;31.00;;;5.00;99.90;;;;;;5013880;28;20181;-75
2022/01/12 13:28:01;;;;;;;52.73;30.30;;;4.80;99.90;;;;;;5014307;28;20594;-76
2022/01/12 13:30:32;;;;;;;61.20;30.60;;;4.80;99.90;;;;;;5012683;28;20196;-76
2022/01/12 13:33:01;;;;;;;52.07;29.77;;;4.90;99.90;;;;;;5013975;28;20628;-76
2022/01/12 13:35:31;;;;;;;54.47;30.23;;;5.20;99.90;;;;;;5012681;28;20241;-76
2022/01/12 13:38:01;;;;;;;55.43;31.10;;;5.00;99.90;;;;;;5028380;28;20192;-76
2022/01/12 13:40:34;;;;;;;67.83;34.57;;;5.00;99.90;;;;;;5012480;28;20200;-76
2022/01/12 13:43:02;;;;;;;59.50;32.87;;;5.00;99.90;;;;;;5012722;28;20595;-76
2022/01/12 13:45:37;;;;;;;62.40;33.27;;;5.10;99.90;;;;;;5008246;28;20206;-77
2022/01/12 13:48:13;;;;;;;65.40;35.83;;;4.90;99.90;;;;;;5004027;28;20204;-76
2022/01/12 13:50:44;;;;;;;67.70;35.20;;;4.90;99.90;;;;;;5012409;28;20205;-76
2022/01/12 13:53:11;;;;;;;71.60;34.00;;;5.10;99.90;;;;;;5013704;28;20228;-76
2022/01/12 13:55:50;;;;;;;64.50;32.47;;;5.10;99.90;;;;;;5028694;28;20219;-76
2022/01/12 13:58:17;;;;;;;60.97;31.50;;;5.00;99.90;;;;;;5013160;28;20182;-76
2022/01/12 14:00:46;;;;;;;66.10;32.53;;;5.10;99.90;;;;;;5012722;28;20284;-77
2022/01/12 14:03:19;;;;;;;59.63;31.33;;;5.20;99.90;;;;;;5012222;28;20223;-76
2022/01/12 14:05:46;;;;;;;53.90;30.63;;;5.40;99.90;;;;;;5012158;28;20197;-77
2022/01/12 14:08:15;;;;;;;52.07;28.90;;;5.50;99.90;;;;;;5029265;28;20210;-77
2022/01/12 14:10:44;;;;;;;49.00;24.87;;;5.50;99.90;;;;;;5007820;28;20214;-77
2022/01/12 14:13:12;;;;;;;45.10;25.63;;;5.50;99.90;;;;;;5012982;28;20213;-77
2022/01/12 14:15:40;;;;;;;43.90;25.00;;;5.50;99.90;;;;;;5013165;28;20205;-77
2022/01/12 14:18:18;;;;;;;45.70;24.97;;;5.40;99.90;;;;;;5009916;28;20209;-76